Time;durP1;ratioP1;P1;durP2;ratioP2;P2;SDS_P1;SDS_P2;PMS_P1;PMS_P2;Temp;Humidity;BMP_temperature;BMP_pressure;BME280_temperature;BME280_humidity;BME280_pressure;Samples;Min_cycle;Max_cycle;Signal;HPM_P1;HPM_P2
2022/02/27 00:01:28;;;;;;;219.53;99.93;;;;;;;-2.15;74.91;100643.83;2249344;78;20880;-82
2022/02/27 00:04:29;;;;;;;233.47;104.83;;;;;;;-2.17;74.74;100649.56;2249394;79;20916;-83
2022/02/27 00:07:30;;;;;;;210.60;99.33;;;;;;;-2.18;74.87;100653.78;2249788;79;20952;-83
2022/02/27 00:10:31;;;;;;;182.23;86.03;;;;;;;-2.22;74.88;100650.81;2249629;79;21413;-82
2022/02/27 00:13:31;;;;;;;173.43;82.23;;;;;;;-2.31;73.88;100648.32;2249634;78;20943;-83
2022/02/27 00:16:33;;;;;;;156.70;72.87;;;;;;;-2.22;74.79;100650.81;2249591;78;20959;-83
2022/02/27 00:19:34;;;;;;;148.40;66.07;;;;;;;-2.22;74.63;100647.88;2249612;79;20926;-83
2022/02/27 00:22:34;;;;;;;147.47;68.83;;;;;;;-2.25;74.73;100653.61;2250203;79;20904;-82
2022/02/27 00:25:34;;;;;;;125.00;58.53;;;;;;;-2.23;74.66;100651.19;2249373;78;20904;-84
2022/02/27 00:28:35;;;;;;;132.17;58.43;;;;;;;-2.25;74.87;100653.99;2266859;77;21025;-83
2022/02/27 00:31:35;;;;;;;122.70;58.17;;;;;;;-2.25;74.83;100647.59;2281616;78;20949;-83
2022/02/27 00:34:36;;;;;;;126.40;61.03;;;;;;;-2.22;75.03;100647.88;2282278;78;20906;-83
2022/02/27 00:37:36;;;;;;;285.50;107.80;;;;;;;-2.23;74.94;100649.91;2282476;78;20883;-83
2022/02/27 00:40:38;;;;;;;280.87;102.50;;;;;;;-2.22;75.37;100651.71;2282593;78;21400;-83
2022/02/27 00:43:38;;;;;;;361.50;126.97;;;;;;;-2.19;75.00;100649.81;2282283;78;20990;-82
2022/02/27 00:46:39;;;;;;;307.40;111.63;;;;;;;-2.20;75.03;100651.47;2282229;78;20926;-83
2022/02/27 00:49:39;;;;;;;286.20;108.97;;;;;;;-2.25;74.72;100656.55;2281824;78;20966;-83
2022/02/27 00:52:41;;;;;;;197.17;78.50;;;;;;;-2.29;74.76;100652.81;2281514;78;20930;-82
2022/02/27 00:55:42;;;;;;;161.43;69.63;;;;;;;-2.30;74.52;100651.40;2281671;78;20981;-83
2022/02/27 00:58:46;;;;;;;232.03;97.43;;;;;;;-2.36;74.51;100658.13;2280502;78;21310;-82
2022/02/27 01:01:45;;;;;;;272.47;112.67;;;;;;;-2.36;74.81;100655.95;2280639;78;21009;-82
2022/02/27 01:04:46;;;;;;;284.53;121.23;;;;;;;-2.33;74.70;100667.74;2281869;78;20966;-82
2022/02/27 01:07:46;;;;;;;148.40;68.50;;;;;;;-2.39;74.43;100665.53;2281712;78;20970;-82
2022/02/27 01:10:47;;;;;;;139.03;62.87;;;;;;;-2.37;74.91;100669.12;2281439;78;20986;-82
2022/02/27 01:13:47;;;;;;;112.23;53.80;;;;;;;-2.35;74.85;100670.55;2281632;78;20946;-83
2022/02/27 01:16:48;;;;;;;134.13;60.90;;;;;;;-2.36;74.94;100668.74;2281848;78;20918;-82
2022/02/27 01:19:49;;;;;;;116.70;57.00;;;;;;;-2.41;74.23;100674.72;2281187;78;21899;-82
2022/02/27 01:22:50;;;;;;;130.20;63.20;;;;;;;-2.43;74.36;100671.50;2281185;78;20938;-83
2022/02/27 01:25:51;;;;;;;116.23;55.93;;;;;;;-2.40;74.75;100670.13;2280702;78;20969;-82
2022/02/27 01:28:51;;;;;;;116.57;57.83;;;;;;;-2.38;74.80;100674.10;2286848;77;21026;-84
2022/02/27 01:31:52;;;;;;;121.03;59.33;;;;;;;-2.36;75.02;100670.02;2292027;78;20916;-84
2022/02/27 01:34:53;;;;;;;120.07;55.13;;;;;;;-2.32;74.92;100669.55;2291995;78;20904;-84
2022/02/27 01:37:53;;;;;;;125.83;58.30;;;;;;;-2.26;74.91;100664.98;2292234;78;20920;-84
2022/02/27 01:40:54;;;;;;;128.00;57.87;;;;;;;-2.25;74.44;100661.67;2292329;78;20987;-84
2022/02/27 01:43:54;;;;;;;123.90;56.60;;;;;;;-2.19;75.36;100657.48;2292779;78;21277;-83
2022/02/27 01:46:55;;;;;;;118.20;54.53;;;;;;;-2.12;75.14;100661.12;2292095;78;20912;-84
2022/02/27 01:49:55;;;;;;;125.30;57.57;;;;;;;-2.13;74.78;100658.94;2292516;78;20963;-83
2022/02/27 01:52:56;;;;;;;127.67;56.00;;;;;;;-2.11;74.93;100654.86;2291466;78;20966;-83
2022/02/27 01:55:56;;;;;;;115.77;52.63;;;;;;;-2.05;75.14;100657.97;2290542;78;21013;-83
2022/02/27 01:58:57;;;;;;;109.00;52.20;;;;;;;-2.05;74.91;100657.97;2291333;78;20916;-83
2022/02/27 02:01:57;;;;;;;103.87;50.43;;;;;;;-2.04;74.99;100659.77;2291647;78;21268;-83
2022/02/27 02:04:58;;;;;;;95.93;48.03;;;;;;;-2.02;75.15;100656.96;2291493;78;21268;-83
2022/02/27 02:07:58;;;;;;;92.43;47.33;;;;;;;-2.01;74.95;100657.48;2291541;78;21327;-83
2022/02/27 02:10:59;;;;;;;94.70;46.30;;;;;;;-2.01;74.72;100654.02;2289779;78;21415;-83
2022/02/27 02:14:00;;;;;;;92.67;45.63;;;;;;;-2.02;74.39;100655.68;2290432;78;20928;-83
2022/02/27 02:17:00;;;;;;;84.27;42.67;;;;;;;-2.04;74.27;100647.34;2292084;78;20920;-83
2022/02/27 02:20:01;;;;;;;85.00;44.00;;;;;;;-2.06;74.10;100647.59;2291909;78;20963;-83
2022/02/27 02:23:01;;;;;;;75.53;40.00;;;;;;;-2.08;74.18;100652.95;2291974;78;20951;-83
2022/02/27 02:26:02;;;;;;;83.77;41.33;;;;;;;-2.10;74.33;100646.42;2291911;78;21312;-83
2022/02/27 02:29:02;;;;;;;72.67;38.47;;;;;;;-2.09;74.86;100649.88;2291478;78;21007;-83
2022/02/27 02:32:03;;;;;;;73.33;40.90;;;;;;;-2.12;74.89;100649.60;2291825;78;20943;-83
2022/02/27 02:35:03;;;;;;;69.23;38.80;;;;;;;-2.15;75.33;100641.65;2291914;78;20966;-83
2022/02/27 02:38:04;;;;;;;71.23;38.13;;;;;;;-2.16;75.25;100650.98;2291814;78;20912;-83
2022/02/27 02:41:04;;;;;;;71.90;38.80;;;;;;;-2.18;74.92;100650.33;2291532;78;20995;-83
2022/02/27 02:44:05;;;;;;;70.37;39.63;;;;;;;-2.29;74.54;100651.53;2291667;78;20972;-83
2022/02/27 02:47:05;;;;;;;70.30;39.03;;;;;;;-2.32;74.95;100663.15;2291857;78;20945;-83
2022/02/27 02:50:06;;;;;;;69.57;37.07;;;;;;;-2.34;74.97;100663.02;2291497;78;20999;-83
2022/02/27 02:53:06;;;;;;;68.07;38.17;;;;;;;-2.40;74.89;100657.72;2290925;78;20948;-82
2022/02/27 02:56:07;;;;;;;66.00;37.70;;;;;;;-2.44;74.91;100655.64;2290982;78;20976;-83
2022/02/27 02:59:07;;;;;;;76.93;39.83;;;;;;;-2.49;74.51;100651.77;2291016;78;20931;-83
2022/02/27 03:02:09;;;;;;;69.43;37.37;;;;;;;-2.52;74.77;100656.59;2291399;78;20940;-83
2022/02/27 03:05:10;;;;;;;60.37;35.43;;;;;;;-2.52;74.68;100661.33;2290573;78;21051;-83
2022/02/27 03:08:10;;;;;;;72.70;38.53;;;;;;;-2.58;74.37;100661.67;2291048;78;20924;-83
2022/02/27 03:11:13;;;;;;;71.60;36.87;;;;;;;-2.63;74.47;100650.09;2290348;78;21053;-83
2022/02/27 03:14:14;;;;;;;73.37;36.20;;;;;;;-2.65;74.33;100647.77;2290604;78;20971;-83
2022/02/27 03:17:14;;;;;;;71.80;35.97;;;;;;;-2.69;74.58;100648.24;2291798;78;21311;-83
2022/02/27 03:20:15;;;;;;;67.67;37.00;;;;;;;-2.71;74.35;100652.31;2291617;78;20905;-83
2022/02/27 03:23:15;;;;;;;69.57;37.03;;;;;;;-2.72;74.69;100646.69;2291433;78;20932;-83
2022/02/27 03:26:16;;;;;;;73.33;37.27;;;;;;;-2.76;74.51;100644.60;2291642;78;20909;-83
2022/02/27 03:29:17;;;;;;;75.07;39.07;;;;;;;-2.81;74.81;100643.28;2286314;77;20963;-82
2022/02/27 03:32:17;;;;;;;80.13;38.40;;;;;;;-2.86;74.82;100648.34;2281862;78;20907;-82
2022/02/27 03:35:18;;;;;;;75.47;38.30;;;;;;;-2.87;75.12;100645.64;2282067;78;21258;-83
2022/02/27 03:38:18;;;;;;;66.47;38.73;;;;;;;-2.88;75.15;100651.13;2281976;78;20918;-83
2022/02/27 03:41:19;;;;;;;71.53;38.37;;;;;;;-2.91;75.25;100644.46;2282020;78;20942;-83
2022/02/27 03:44:19;;;;;;;71.67;39.73;;;;;;;-2.93;75.26;100643.42;2282066;78;20915;-82
2022/02/27 03:47:20;;;;;;;73.27;38.00;;;;;;;-2.95;75.13;100647.48;2281926;78;20907;-82
2022/02/27 03:50:20;;;;;;;71.70;37.77;;;;;;;-2.98;74.83;100638.26;2282041;78;20942;-82
2022/02/27 03:53:22;;;;;;;68.00;36.63;;;;;;;-3.01;74.80;100641.42;2281783;78;20915;-82
2022/02/27 03:56:22;;;;;;;66.13;36.87;;;;;;;-3.02;74.84;100643.84;2282708;78;21010;-82
2022/02/27 03:59:23;;;;;;;69.17;36.53;;;;;;;-3.05;75.05;100644.83;2282881;78;20875;-82
2022/02/27 04:02:23;;;;;;;66.77;38.03;;;;;;;-3.08;74.89;100646.72;2282771;78;20913;-83
2022/02/27 04:05:24;;;;;;;72.03;38.23;;;;;;;-3.11;74.81;100653.20;2282695;78;20935;-83
2022/02/27 04:08:24;;;;;;;73.67;39.23;;;;;;;-3.12;74.89;100652.67;2282798;78;21294;-83
2022/02/27 04:11:25;;;;;;;66.00;36.43;;;;;;;-3.17;74.83;100655.17;2282687;78;20998;-83
2022/02/27 04:14:25;;;;;;;68.63;36.67;;;;;;;-3.26;74.56;100651.00;2281807;78;20974;-82
2022/02/27 04:17:26;;;;;;;73.47;36.70;;;;;;;-3.29;74.77;100664.77;2282716;78;20938;-83
2022/02/27 04:20:26;;;;;;;69.70;38.53;;;;;;;-3.29;74.99;100664.77;2282049;78;20930;-82
2022/02/27 04:23:27;;;;;;;68.87;38.43;;;;;;;-3.29;75.00;100663.86;2282713;78;20969;-82
2022/02/27 04:26:27;;;;;;;77.53;39.17;;;;;;;-3.30;75.03;100662.06;2281864;78;20953;-83
2022/02/27 04:29:28;;;;;;;82.60;40.60;;;;;;;-3.35;74.75;100664.18;2265506;78;20932;-82
2022/02/27 04:32:28;;;;;;;70.87;37.63;;;;;;;-3.33;74.98;100660.49;2250744;78;20959;-84
2022/02/27 04:35:29;;;;;;;73.93;37.20;;;;;;;-3.31;75.14;100660.27;2250641;79;20909;-84
2022/02/27 04:38:30;;;;;;;76.13;36.70;;;;;;;-3.34;74.93;100663.80;2250450;79;20947;-83
2022/02/27 04:41:30;;;;;;;70.90;36.97;;;;;;;-3.38;74.91;100670.27;2250322;79;20971;-83
2022/02/27 04:44:31;;;;;;;69.13;37.40;;;;;;;-3.40;74.63;100670.50;2250189;78;20963;-83
2022/02/27 04:47:31;;;;;;;67.50;39.00;;;;;;;-3.44;74.73;100666.23;2249587;79;20967;-83
2022/02/27 04:50:32;;;;;;;70.37;36.97;;;;;;;-3.48;74.74;100667.56;2250122;78;21046;-83
2022/02/27 04:53:33;;;;;;;69.80;37.10;;;;;;;-3.50;74.85;100671.63;2249699;79;20948;-83
2022/02/27 04:56:33;;;;;;;66.37;35.83;;;;;;;-3.51;74.93;100674.92;2250260;78;21340;-83
2022/02/27 04:59:34;;;;;;;73.27;38.60;;;;;;;-3.53;74.79;100679.89;2250617;78;20916;-83
2022/02/27 05:02:34;;;;;;;72.67;37.27;;;;;;;-3.55;74.67;100693.25;2250305;78;20941;-83
2022/02/27 05:05:35;;;;;;;73.10;37.60;;;;;;;-3.59;74.52;100694.98;2250747;78;20912;-83
2022/02/27 05:08:35;;;;;;;80.57;39.87;;;;;;;-3.60;74.43;100700.47;2250426;79;20928;-83
2022/02/27 05:11:36;;;;;;;77.57;39.70;;;;;;;-3.60;74.83;100696.64;2250324;79;20971;-83
2022/02/27 05:14:36;;;;;;;78.43;40.43;;;;;;;-3.59;74.70;100698.82;2250426;78;20932;-83
2022/02/27 05:17:37;;;;;;;77.47;40.87;;;;;;;-3.61;74.61;100707.61;2250511;78;20909;-83
2022/02/27 05:20:37;;;;;;;68.50;38.67;;;;;;;-3.60;74.81;100703.40;2249889;79;20920;-83
2022/02/27 05:23:38;;;;;;;77.67;40.00;;;;;;;-3.65;74.22;100708.06;2249644;78;21387;-83
2022/02/27 05:26:38;;;;;;;90.63;40.00;;;;;;;-3.65;74.66;100711.89;2249638;78;20920;-83
2022/02/27 05:29:39;;;;;;;69.93;37.27;;;;;;;-3.61;74.48;100715.27;2270836;77;21007;-83
2022/02/27 05:32:39;;;;;;;79.83;38.23;;;;;;;-3.62;74.21;100726.23;2291289;78;21030;-83
2022/02/27 05:35:40;;;;;;;71.23;38.33;;;;;;;-3.60;74.00;100721.27;2291244;78;20983;-83
2022/02/27 05:38:40;;;;;;;79.53;40.23;;;;;;;-3.57;73.90;100724.12;2291517;78;21402;-83
2022/02/27 05:41:42;;;;;;;69.37;38.97;;;;;;;-3.53;73.96;100728.77;2290368;78;21405;-80
2022/02/27 05:44:43;;;;;;;150.37;82.00;;;;;;;-3.40;74.04;100729.23;2290201;78;21066;-80
2022/02/27 05:47:43;;;;;;;85.33;46.37;;;;;;;-3.30;74.18;100731.02;2289930;78;20991;-82
2022/02/27 05:50:44;;;;;;;81.97;40.60;;;;;;;-3.19;73.76;100735.48;2290302;78;21407;-81
2022/02/27 05:53:44;;;;;;;77.90;41.60;;;;;;;-3.06;73.81;100733.73;2290683;78;21363;-81
2022/02/27 05:56:45;;;;;;;77.87;41.40;;;;;;;-2.93;73.76;100737.59;2291616;78;21268;-81
2022/02/27 05:59:45;;;;;;;83.33;40.93;;;;;;;-2.80;74.06;100737.09;2291219;78;20948;-77
2022/02/27 06:02:46;;;;;;;86.23;42.83;;;;;;;-2.66;73.89;100744.39;2291258;78;20908;-77
2022/02/27 06:05:46;;;;;;;78.77;42.67;;;;;;;-2.51;73.94;100746.61;2290674;78;20979;-77
2022/02/27 06:08:47;;;;;;;92.50;49.20;;;;;;;-2.34;74.03;100749.97;2290953;78;20913;-77
2022/02/27 06:11:47;;;;;;;90.77;46.10;;;;;;;-2.13;74.26;100745.93;2290878;78;21034;-77
2022/02/27 06:14:48;;;;;;;87.80;48.67;;;;;;;-1.90;74.22;100757.36;2291168;78;20935;-77
2022/02/27 06:17:48;;;;;;;89.23;47.20;;;;;;;-1.61;74.59;100749.41;2291236;78;21307;-77
2022/02/27 06:20:49;;;;;;;85.27;47.40;;;;;;;-1.34;74.98;100746.73;2291252;78;20960;-77
2022/02/27 06:23:50;;;;;;;81.33;44.33;;;;;;;-1.05;74.95;100748.40;2290798;78;20927;-77
2022/02/27 06:26:51;;;;;;;83.37;45.77;;;;;;;-0.80;75.06;100756.20;2290369;78;20959;-77
2022/02/27 06:29:51;;;;;;;76.83;44.60;;;;;;;-0.57;74.90;100740.23;2290052;78;21004;-77
2022/02/27 06:32:52;;;;;;;79.83;46.50;;;;;;;-0.38;75.06;100741.03;2290291;78;20926;-77
2022/02/27 06:35:52;;;;;;;73.67;44.73;;;;;;;-0.20;75.17;100745.91;2290963;78;20943;-76
2022/02/27 06:38:52;;;;;;;77.77;45.93;;;;;;;-0.03;75.04;100743.99;2290986;78;20992;-75
2022/02/27 06:41:53;;;;;;;111.77;69.97;;;;;;;0.14;76.96;100753.52;2290657;78;21016;-76
2022/02/27 06:44:53;;;;;;;85.13;48.73;;;;;;;3.82;100.00;100731.86;2291043;78;21336;-77
2022/02/27 06:47:54;;;;;;;67.87;41.80;;;;;;;5.12;75.70;100728.03;2290790;78;21395;-77
2022/02/27 06:50:54;;;;;;;71.07;42.47;;;;;;;4.16;71.00;100729.48;2290808;78;21320;-77
2022/02/27 06:53:55;;;;;;;70.37;43.13;;;;;;;3.36;70.37;100737.69;2290166;78;21092;-77
2022/02/27 06:56:55;;;;;;;63.17;39.80;;;;;;;2.87;70.67;100740.65;2290825;78;20944;-77
2022/02/27 06:59:56;;;;;;;70.10;42.23;;;;;;;2.49;71.06;100738.22;2290546;78;20920;-77
2022/02/27 07:02:57;;;;;;;74.23;44.77;;;;;;;2.30;71.76;100741.11;2290969;78;21000;-77
2022/02/27 07:05:58;;;;;;;81.87;45.63;;;;;;;2.14;71.99;100742.04;2289829;78;21366;-77
2022/02/27 07:08:59;;;;;;;69.57;44.13;;;;;;;2.00;72.37;100755.17;2289468;78;21019;-77
2022/02/27 07:12:00;;;;;;;72.97;44.97;;;;;;;1.88;72.65;100756.42;2290051;78;21106;-77
2022/02/27 07:15:01;;;;;;;;;;;;;;;;;;;;;
2022/02/27 07:18:02;;;;;;;67.40;45.40;;;;;;;1.85;73.49;100770.36;2289852;78;21003;-78
2022/02/27 07:21:02;;;;;;;71.70;46.17;;;;;;;1.85;73.46;100761.73;2290469;78;21023;-78
2022/02/27 07:24:03;;;;;;;69.23;44.50;;;;;;;1.84;73.45;100771.52;2291057;78;20962;-77
2022/02/27 07:27:03;;;;;;;71.57;45.57;;;;;;;1.82;73.71;100765.36;2291075;78;21312;-77
2022/02/27 07:30:04;;;;;;;69.70;43.97;;;;;;;1.81;73.64;100773.47;2286337;78;20982;-77
2022/02/27 07:33:05;;;;;;;129.70;65.17;;;;;;;1.79;74.03;100765.13;2281302;78;20950;-77
2022/02/27 07:36:05;;;;;;;100.50;57.13;;;;;;;1.77;74.00;100761.14;2281378;78;21290;-77
2022/02/27 07:39:06;;;;;;;144.33;81.57;;;;;;;1.77;74.09;100768.87;2281372;78;21305;-77
2022/02/27 07:42:07;;;;;;;82.17;49.03;;;;;;;1.88;74.45;100768.41;2281153;78;20973;-77
2022/02/27 07:45:07;;;;;;;79.40;50.03;;;;;;;1.86;74.35;100763.52;2280404;78;20969;-77
2022/02/27 07:48:08;;;;;;;107.37;60.03;;;;;;;1.93;74.40;100764.89;2280553;78;20886;-77
2022/02/27 07:51:09;;;;;;;133.33;79.10;;;;;;;2.04;74.31;100761.45;2281305;78;20946;-77
2022/02/27 07:54:09;;;;;;;80.07;49.80;;;;;;;2.08;74.13;100755.75;2281384;78;20957;-77
2022/02/27 07:57:10;;;;;;;163.03;110.27;;;;;;;2.14;74.20;100765.23;2281308;78;20954;-76
2022/02/27 08:00:11;;;;;;;113.40;68.90;;;;;;;4.50;91.79;100758.90;2281273;78;20970;-77
2022/02/27 08:03:11;;;;;;;102.87;62.63;;;;;;;6.53;73.66;100753.11;2281182;78;20953;-77
2022/02/27 08:06:12;;;;;;;106.53;63.37;;;;;;;5.54;68.60;100756.14;2280187;78;20969;-77
2022/02/27 08:09:12;;;;;;;96.33;55.53;;;;;;;4.74;68.72;100761.80;2280175;78;21016;-77
2022/02/27 08:12:13;;;;;;;95.37;62.23;;;;;;;4.21;69.17;100770.25;2280950;78;21162;-77
2022/02/27 08:15:15;;;;;;;81.47;50.43;;;;;;;3.88;70.18;100770.14;2281104;78;20907;-77
2022/02/27 08:18:16;;;;;;;82.63;49.17;;;;;;;3.65;70.23;100778.48;2281212;78;20953;-77
2022/02/27 08:21:17;;;;;;;77.00;47.00;;;;;;;3.33;70.80;100771.42;2281146;78;20923;-77
2022/02/27 08:24:18;;;;;;;83.03;49.17;;;;;;;3.16;71.33;100774.99;2280925;78;20994;-76
2022/02/27 08:27:18;;;;;;;71.53;44.40;;;;;;;2.96;71.76;100772.66;2281272;78;21266;-77
2022/02/27 08:30:19;;;;;;;89.87;50.57;;;;;;;2.86;72.04;100779.23;2265718;77;20972;-77
2022/02/27 08:33:19;;;;;;;83.63;51.93;;;;;;;2.79;72.69;100778.28;2249083;78;20955;-77
2022/02/27 08:36:20;;;;;;;82.30;52.73;;;;;;;2.77;73.10;100778.56;2247869;79;21006;-77
2022/02/27 08:39:21;;;;;;;81.43;50.70;;;;;;;2.78;73.16;100777.77;2248271;79;20901;-77
2022/02/27 08:42:21;;;;;;;79.10;48.13;;;;;;;2.78;73.27;100776.48;2247770;78;21015;-77
2022/02/27 08:45:22;;;;;;;86.97;49.57;;;;;;;2.79;73.31;100775.70;2248417;79;20951;-77
2022/02/27 08:48:23;;;;;;;81.63;48.53;;;;;;;2.72;73.29;100778.61;2247936;78;20940;-77
2022/02/27 08:51:23;;;;;;;77.83;48.73;;;;;;;2.66;73.52;100776.88;2247740;79;21402;-76
2022/02/27 08:54:24;;;;;;;81.60;50.03;;;;;;;2.67;73.91;100779.95;2247605;79;20924;-76
2022/02/27 08:57:24;;;;;;;84.60;49.87;;;;;;;2.67;73.91;100779.56;2247469;78;20916;-77
2022/02/27 09:00:25;;;;;;;78.70;49.63;;;;;;;2.73;74.03;100781.70;2246558;78;21329;-77
2022/02/27 09:03:27;;;;;;;80.83;50.40;;;;;;;2.76;73.98;100775.47;2248934;78;21324;-77
2022/02/27 09:06:27;;;;;;;79.43;44.77;;;;;;;2.84;74.39;100775.64;2248742;79;21427;-77
2022/02/27 09:09:28;;;;;;;80.23;47.70;;;;;;;2.92;74.17;100774.52;2247362;79;21046;-76
2022/02/27 09:12:28;;;;;;;74.50;47.10;;;;;;;2.95;74.04;100772.16;2246983;78;21011;-76
2022/02/27 09:15:29;;;;;;;74.57;46.07;;;;;;;2.96;73.85;100779.11;2246493;79;21378;-77
2022/02/27 09:18:29;;;;;;;75.10;45.53;;;;;;;2.95;74.00;100777.71;2246898;78;21272;-76
2022/02/27 09:21:30;;;;;;;77.63;47.47;;;;;;;3.07;73.94;100773.04;2247033;79;21366;-77
2022/02/27 09:24:30;;;;;;;79.80;47.67;;;;;;;3.28;73.59;100771.09;2247940;78;21375;-77
2022/02/27 09:27:31;;;;;;;78.43;45.67;;;;;;;3.43;73.34;100763.14;2248664;78;20979;-77
2022/02/27 09:30:31;;;;;;;71.40;42.27;;;;;;;3.53;73.00;100759.56;2263055;77;20998;-77
2022/02/27 09:33:32;;;;;;;82.10;47.20;;;;;;;3.57;72.72;100764.14;2281310;78;21313;-77
2022/02/27 09:36:33;;;;;;;75.63;43.03;;;;;;;3.66;72.69;100762.20;2281352;78;21013;-76
2022/02/27 09:39:36;;;;;;;70.37;45.03;;;;;;;3.62;72.23;100764.07;2281300;78;21282;-76
2022/02/27 09:42:36;;;;;;;74.40;44.73;;;;;;;3.49;72.41;100761.42;2280971;78;21009;-77
2022/02/27 09:45:36;;;;;;;69.57;43.03;;;;;;;3.57;72.75;100760.27;2281611;78;20911;-76
2022/02/27 09:48:37;;;;;;;80.17;48.73;;;;;;;3.70;72.32;100761.63;2281422;78;20914;-76
2022/02/27 09:51:37;;;;;;;70.37;43.03;;;;;;;3.72;72.25;100763.02;2281196;78;21005;-76
2022/02/27 09:54:38;;;;;;;68.43;41.43;;;;;;;3.83;72.11;100760.39;2281320;78;20898;-76
2022/02/27 09:57:38;;;;;;;68.03;40.33;;;;;;;3.96;71.85;100760.83;2281397;78;20906;-76
2022/02/27 10:00:39;;;;;;;71.87;41.40;;;;;;;4.09;71.45;100753.52;2281262;78;21321;-77
2022/02/27 10:03:40;;;;;;;71.10;41.90;;;;;;;4.14;72.77;100754.72;2281389;78;21266;-76
2022/02/27 10:06:40;;;;;;;69.30;42.00;;;;;;;4.43;70.56;100756.30;2280013;78;20922;-76
2022/02/27 10:09:41;;;;;;;93.00;51.23;;;;;;;4.32;70.48;100747.30;2280137;78;21103;-76
2022/02/27 10:12:42;;;;;;;72.87;41.33;;;;;;;4.28;70.55;100743.62;2281178;78;21016;-76
2022/02/27 10:15:43;;;;;;;65.40;39.23;;;;;;;4.30;70.51;100743.33;2281196;78;21345;-77
2022/02/27 10:18:43;;;;;;;63.37;38.20;;;;;;;4.36;70.48;100740.28;2281364;78;20958;-76
2022/02/27 10:21:45;;;;;;;63.43;39.37;;;;;;;4.34;70.17;100742.77;2281229;78;20962;-77
2022/02/27 10:24:45;;;;;;;64.33;40.23;;;;;;;4.37;70.45;100733.03;2281228;78;21290;-77
2022/02/27 10:27:46;;;;;;;64.83;37.80;;;;;;;4.52;70.27;100737.91;2260293;78;20918;-77
2022/02/27 10:30:50;;;;;;;67.73;40.43;;;;;;;4.65;70.04;100737.92;2266940;77;21008;-77
2022/02/27 10:33:49;;;;;;;71.63;42.87;;;;;;;4.74;69.63;100735.93;2248642;79;20940;-77
2022/02/27 10:36:49;;;;;;;67.17;39.30;;;;;;;4.82;69.80;100735.53;2249203;78;20956;-77
2022/02/27 10:39:51;;;;;;;69.70;41.50;;;;;;;4.92;69.12;100732.34;2248501;78;20999;-76
2022/02/27 10:42:52;;;;;;;63.37;39.10;;;;;;;5.05;69.26;100731.03;2247355;79;21117;-77
2022/02/27 10:45:53;;;;;;;64.20;37.97;;;;;;;5.12;68.83;100725.84;2248299;79;20999;-77
2022/02/27 10:48:53;;;;;;;67.30;37.50;;;;;;;5.18;68.50;100720.16;2249223;78;21294;-77
2022/02/27 10:51:54;;;;;;;65.70;37.83;;;;;;;5.09;68.55;100714.89;2249064;79;20952;-78
2022/02/27 10:54:55;;;;;;;63.83;32.73;;;;;;;5.13;68.88;100711.70;2248670;79;20964;-76
2022/02/27 10:57:56;;;;;;;73.80;42.23;;;;;;;5.30;68.49;100719.66;2248647;79;21015;-76
2022/02/27 11:00:56;;;;;;;50.50;29.90;;;;;;;5.35;68.52;100716.55;2248695;79;20999;-77
2022/02/27 11:03:57;;;;;;;53.73;31.30;;;;;;;5.47;68.31;100713.83;2249132;78;20920;-76
2022/02/27 11:06:57;;;;;;;59.77;35.20;;;;;;;5.52;68.05;100704.64;2249087;79;20944;-77
2022/02/27 11:09:58;;;;;;;47.07;28.30;;;;;;;5.45;67.93;100711.55;2248101;79;21335;-77
2022/02/27 11:12:58;;;;;;;49.67;28.53;;;;;;;5.64;68.32;100700.21;2248228;78;21061;-77
2022/02/27 11:15:59;;;;;;;47.43;29.03;;;;;;;5.81;67.58;100691.27;2248763;78;20936;-77
2022/02/27 11:18:59;;;;;;;46.70;29.77;;;;;;;5.74;67.12;100691.30;2249136;78;20972;-77
2022/02/27 11:22:00;;;;;;;44.07;25.50;;;;;;;5.74;67.84;100689.59;2248985;78;20888;-76
2022/02/27 11:25:00;;;;;;;46.33;29.67;;;;;;;5.90;67.16;100686.27;2249078;79;20913;-76
2022/02/27 11:28:01;;;;;;;41.47;25.23;;;;;;;6.00;66.87;100691.59;2248940;79;20908;-77
2022/02/27 11:31:01;;;;;;;37.90;23.53;;;;;;;6.04;66.44;100676.70;2263008;77;20982;-76
2022/02/27 11:34:02;;;;;;;39.70;24.47;;;;;;;6.39;66.51;100667.11;2280004;78;20962;-76
2022/02/27 11:37:03;;;;;;;40.90;24.50;;;;;;;6.87;65.76;100662.48;2279670;78;21853;-76
2022/02/27 11:43:22;;;;;;;39.50;24.90;;;;;;;6.45;65.26;100660.08;2281290;78;21381;-77
2022/02/27 11:46:23;;;;;;;37.60;22.73;;;;;;;6.27;64.93;100662.52;2281421;78;20938;-78
2022/02/27 11:49:23;;;;;;;38.00;22.60;;;;;;;5.99;64.96;100671.25;2281305;78;20945;-77
2022/02/27 11:52:24;;;;;;;42.17;23.97;;;;;;;5.63;65.46;100681.58;2281274;78;21325;-78
2022/02/27 11:55:25;;;;;;;38.20;23.40;;;;;;;5.30;66.43;100676.53;2280107;78;21255;-77
2022/02/27 11:58:25;;;;;;;38.97;24.27;;;;;;;5.17;66.94;100670.07;2280220;78;20922;-77
2022/02/27 12:01:26;;;;;;;39.97;23.97;;;;;;;5.21;67.30;100668.59;2281164;78;20923;-76
2022/02/27 12:04:27;;;;;;;34.43;19.27;;;;;;;5.27;67.15;100665.98;2280944;78;20958;-77
2022/02/27 12:07:28;;;;;;;36.33;20.13;;;;;;;5.23;67.23;100668.30;2281314;78;20907;-77
2022/02/27 12:10:28;;;;;;;81.93;55.50;;;;;;;5.44;74.27;100666.62;2281236;78;20985;-77
2022/02/27 12:13:30;;;;;;;33.73;21.63;;;;;;;8.32;74.85;100654.58;2281320;78;20973;-77
2022/02/27 12:16:30;;;;;;;33.80;21.03;;;;;;;8.58;60.89;100648.08;2281349;78;20906;-78
2022/02/27 12:19:31;;;;;;;34.00;22.47;;;;;;;7.62;61.51;100651.86;2280900;78;20997;-78
2022/02/27 12:22:31;;;;;;;29.70;19.63;;;;;;;6.81;62.70;100650.87;2280733;78;20945;-77
2022/02/27 12:25:32;;;;;;;26.23;16.80;;;;;;;6.24;63.95;100648.97;2280452;78;20957;-77
2022/02/27 12:28:32;;;;;;;25.40;15.63;;;;;;;5.97;64.38;100652.12;2281280;78;20946;-77
2022/02/27 12:31:33;;;;;;;28.17;17.43;;;;;;;5.73;64.70;100656.72;2263955;78;21047;-77
2022/02/27 12:34:34;;;;;;;26.83;18.33;;;;;;;5.72;64.82;100657.52;2249379;79;21090;-77
2022/02/27 12:37:34;;;;;;;30.67;16.97;;;;;;;5.73;65.11;100651.94;2248072;79;20995;-77
2022/02/27 12:40:35;;;;;;;29.00;17.23;;;;;;;5.62;65.34;100653.88;2248981;79;20921;-77
2022/02/27 12:43:35;;;;;;;26.40;17.57;;;;;;;5.34;65.95;100661.68;2249335;79;20963;-77
2022/02/27 12:46:36;;;;;;;24.03;15.60;;;;;;;5.27;66.12;100656.03;2249462;78;20900;-77
2022/02/27 12:52:56;;;;;;;24.73;16.63;;;;;;;5.30;65.48;100654.92;2249306;79;21351;-77
2022/02/27 12:55:56;;;;;;;27.70;17.00;;;;;;;5.34;66.02;100646.55;2248126;79;20948;-78
2022/02/27 12:58:57;;;;;;;32.90;21.87;;;;;;;5.55;66.07;100642.66;2248305;78;20911;-77
2022/02/27 13:01:57;;;;;;;27.57;18.57;;;;;;;5.72;65.59;100648.45;2248987;78;21462;-77
2022/02/27 13:04:58;;;;;;;27.77;17.60;;;;;;;5.61;65.64;100644.33;2248499;78;21299;-77
2022/02/27 13:07:58;;;;;;;40.53;21.70;;;;;;;5.42;66.20;100643.62;2247638;79;20959;-77
2022/02/27 13:11:00;;;;;;;33.77;21.03;;;;;;;5.29;66.45;100640.19;2248925;78;20947;-77
2022/02/27 13:14:00;;;;;;;38.23;25.97;;;;;;;5.29;66.41;100637.20;2247986;79;21075;-77
2022/02/27 13:17:00;;;;;;;142.73;101.33;;;;;;;5.55;70.70;100642.66;2248674;79;20951;-77
2022/02/27 13:20:01;;;;;;;37.77;23.47;;;;;;;7.70;74.88;100629.27;2248339;79;20929;-78
2022/02/27 13:23:01;;;;;;;33.17;21.27;;;;;;;8.48;62.33;100626.33;2248144;78;20940;-77
2022/02/27 13:26:02;;;;;;;27.57;18.57;;;;;;;7.61;60.93;100640.08;2248617;78;20953;-78
2022/02/27 13:29:03;;;;;;;36.87;23.83;;;;;;;6.81;61.74;100633.59;2248699;79;20995;-78
2022/02/27 13:32:03;;;;;;;32.50;22.97;;;;;;;6.18;62.90;100645.13;2274774;77;20979;-77
2022/02/27 13:35:04;;;;;;;28.63;18.33;;;;;;;5.63;63.91;100636.24;2290366;78;21331;-78
2022/02/27 13:38:04;;;;;;;26.43;17.80;;;;;;;5.36;64.39;100642.35;2290333;78;21316;-78
2022/02/27 13:41:05;;;;;;;27.50;18.20;;;;;;;5.25;65.11;100644.69;2290068;78;20975;-77
2022/02/27 13:44:05;;;;;;;28.23;17.83;;;;;;;5.11;65.04;100643.41;2289325;78;21007;-78
2022/02/27 13:47:06;;;;;;;34.77;21.83;;;;;;;4.87;65.85;100641.88;2288800;78;20955;-78
2022/02/27 13:50:06;;;;;;;33.17;18.23;;;;;;;4.66;66.59;100636.24;2290409;78;20986;-77